Time;durP1;ratioP1;P1;durP2;ratioP2;P2;SDS_P1;SDS_P2;PMS_P1;PMS_P2;Temp;Humidity;BMP_temperature;BMP_pressure;BME280_temperature;BME280_humidity;BME280_pressure;Samples;Min_cycle;Max_cycle;Signal;HPM_P1;HPM_P2
2022/10/03 00:01:14;;;;;;;;;;;;;;;;;;5072960;28;19920;-43
2022/10/03 00:03:40;;;;;;;;;;;;;;;;;;5089806;28;19961;-43
2022/10/03 00:06:08;;;;;;;;;;;;;;;;;;5090251;28;20002;-43
2022/10/03 00:08:34;;;;;;;;;;;;;;;;;;5089890;28;20375;-43
2022/10/03 00:11:01;;;;;;;;;;;;;;;;;;5088989;28;20006;-43
2022/10/03 00:13:27;;;;;;;;;;;;;;;;;;5087817;28;19908;-42
2022/10/03 00:15:53;;;;;;;;;;;;;;;;;;5090003;28;20430;-42
2022/10/03 00:18:19;;;;;;;;;;;;;;;;;;5088637;28;19904;-44
2022/10/03 00:20:45;;;;;;;;;;;;;;;;;;5091121;28;20011;-42
2022/10/03 00:23:11;;;;;;;;;;;;;;;;;;5089324;28;19982;-42
2022/10/03 00:25:37;;;;;;;;;;;;;;;;;;5089510;28;19908;-43
2022/10/03 00:28:03;;;;;;;;;;;;;;;;;;5088163;28;19962;-43
2022/10/03 00:30:29;;;;;;;;;;;;;;;;;;5088803;28;19908;-42
2022/10/03 00:32:55;;;;;;;;;;;;;;;;;;5089390;28;19907;-42
2022/10/03 00:35:21;;;;;;;;;;;;;;;;;;5089562;28;19912;-43
2022/10/03 00:37:49;;;;;;;;;;;;;;;;;;5087936;28;19976;-42
2022/10/03 00:40:15;;;;;;;;;;;;;;;;;;5069488;28;19957;-42
2022/10/03 00:42:41;;;;;;;;;;;;;;;;;;5069219;28;19998;-44
2022/10/03 00:45:06;;;;;;;;;;;;;;;;;;5069329;28;20116;-42
2022/10/03 00:47:33;;;;;;;;;;;;;;;;;;5068678;28;19904;-42
2022/10/03 00:49:59;;;;;;;;;;;;;;;;;;5087285;28;19943;-43
2022/10/03 00:52:25;;;;;;;;;;;;;;;;;;5088005;28;20455;-43
2022/10/03 00:54:51;;;;;;;;;;;;;;;;;;5089039;28;20006;-42
2022/10/03 00:57:18;;;;;;;;;;;;;;;;;;5089390;28;19911;-44
2022/10/03 00:59:44;;;;;;;;;;;;;;;;;;5088340;28;19908;-43
2022/10/03 01:02:13;;;;;;;;;;;;;;;;;;5088455;28;19939;-43
2022/10/03 01:04:39;;;;;;;;;;;;;;;;;;5088777;28;19904;-42
2022/10/03 01:07:05;;;;;;;;;;;;;;;;;;5089372;28;20018;-43
2022/10/03 01:09:31;;;;;;;;;;;;;;;;;;5087971;28;20053;-43
2022/10/03 01:11:59;;;;;;;;;;;;;;;;;;5088736;28;19946;-43
2022/10/03 01:14:25;;;;;;;;;;;;;;;;;;5086328;28;19912;-42
2022/10/03 01:16:51;;;;;;;;;;;;;;;;;;5088762;28;20061;-43
2022/10/03 01:19:17;;;;;;;;;;;;;;;;;;5088429;28;19922;-42
2022/10/03 01:21:43;;;;;;;;;;;;;;;;;;5087154;28;19908;-43
2022/10/03 01:24:09;;;;;;;;;;;;;;;;;;5087490;28;19915;-45
2022/10/03 01:26:35;;;;;;;;;;;;;;;;;;5087703;28;19911;-42
2022/10/03 01:31:45;;;;;;;;;;;;;;;;;;5088162;28;19915;-42
2022/10/03 01:34:11;;;;;;;;;;;;;;;;;;5087863;28;19912;-42
2022/10/03 01:36:37;;;;;;;;;;;;;;;;;;5088536;28;19904;-42
2022/10/03 01:39:03;;;;;;;;;;;;;;;;;;5089049;28;19915;-42
2022/10/03 01:41:31;;;;;;;;;;;;;;;;;;5088260;28;19904;-44
2022/10/03 01:43:59;;;;;;;;;;;;;;;;;;5086697;28;19915;-42
2022/10/03 01:46:26;;;;;;;;;;;;;;;;;;5088560;28;20316;-43
2022/10/03 01:48:53;;;;;;;;;;;;;;;;;;5088329;28;19990;-44
2022/10/03 01:51:18;;;;;;;;;;;;;;;;;;5088536;28;19903;-42
2022/10/03 01:53:44;;;;;;;;;;;;;;;;;;5088148;28;20864;-43
2022/10/03 01:56:11;;;;;;;;;;;;;;;;;;5087958;28;19935;-43
2022/10/03 01:58:36;;;;;;;;;;;;;;;;;;5086335;28;20508;-45
2022/10/03 02:01:02;;;;;;;;;;;;;;;;;;5088310;28;19904;-43
2022/10/03 02:03:28;;;;;;;;;;;;;;;;;;5087288;28;19940;-42
2022/10/03 02:05:54;;;;;;;;;;;;;;;;;;5068300;28;19904;-43
2022/10/03 02:08:20;;;;;;;;;;;;;;;;;;5068453;28;20387;-42
2022/10/03 02:10:46;;;;;;;;;;;;;;;;;;5068210;28;19908;-43
2022/10/03 02:13:13;;;;;;;;;;;;;;;;;;5069623;28;19943;-43
2022/10/03 02:15:39;;;;;;;;;;;;;;;;;;5089736;28;19916;-42
2022/10/03 02:18:05;;;;;;;;;;;;;;;;;;5092325;28;20002;-43
2022/10/03 02:20:31;;;;;;;;;;;;;;;;;;5092000;28;20002;-42
2022/10/03 02:22:56;;;;;;;;;;;;;;;;;;5091827;28;19911;-43
2022/10/03 02:25:22;;;;;;;;;;;;;;;;;;5076295;28;19925;-43
2022/10/03 02:27:51;;;;;;;;;;;;;;;;;;5071575;28;19916;-42
2022/10/03 02:30:17;;;;;;;;;;;;;;;;;;5071890;28;20299;-42
2022/10/03 02:32:43;;;;;;;;;;;;;;;;;;5071779;28;19947;-42
2022/10/03 02:35:09;;;;;;;;;;;;;;;;;;5076555;28;20373;-43
2022/10/03 02:37:36;;;;;;;;;;;;;;;;;;5091792;28;19932;-42
2022/10/03 02:40:02;;;;;;;;;;;;;;;;;;5092099;28;20330;-43
2022/10/03 02:42:28;;;;;;;;;;;;;;;;;;5091175;28;19908;-42
2022/10/03 02:44:54;;;;;;;;;;;;;;;;;;5091292;28;19915;-43
2022/10/03 02:47:20;;;;;;;;;;;;;;;;;;5091474;28;19908;-44
2022/10/03 02:49:46;;;;;;;;;;;;;;;;;;5091876;28;19977;-43
2022/10/03 02:52:12;;;;;;;;;;;;;;;;;;5092117;28;19911;-43
2022/10/03 02:54:38;;;;;;;;;;;;;;;;;;5082559;28;19913;-43
2022/10/03 02:57:04;;;;;;;;;;;;;;;;;;5071460;28;19911;-43
2022/10/03 02:59:30;;;;;;;;;;;;;;;;;;5070908;28;19905;-42
2022/10/03 03:01:56;;;;;;;;;;;;;;;;;;5071011;28;19908;-42
2022/10/03 03:04:22;;;;;;;;;;;;;;;;;;5072681;28;20057;-42
2022/10/03 03:06:48;;;;;;;;;;;;;;;;;;5070943;28;19908;-43
2022/10/03 03:09:14;;;;;;;;;;;;;;;;;;5071752;28;19905;-43
2022/10/03 03:11:40;;;;;;;;;;;;;;;;;;5070510;28;19904;-42
2022/10/03 03:14:07;;;;;;;;;;;;;;;;;;5077812;28;19979;-44
2022/10/03 03:16:33;;;;;;;;;;;;;;;;;;5090841;28;19900;-43
2022/10/03 03:18:59;;;;;;;;;;;;;;;;;;5091250;28;19930;-42
2022/10/03 03:21:26;;;;;;;;;;;;;;;;;;5091143;28;19914;-42
2022/10/03 03:23:53;;;;;;;;;;;;;;;;;;5085121;28;19912;-43
2022/10/03 03:26:19;;;;;;;;;;;;;;;;;;5084338;28;19908;-43
2022/10/03 03:28:45;;;;;;;;;;;;;;;;;;5090930;28;19912;-44
2022/10/03 03:31:12;;;;;;;;;;;;;;;;;;5090651;28;19904;-42
2022/10/03 03:33:38;;;;;;;;;;;;;;;;;;5089936;28;20410;-43
2022/10/03 03:36:04;;;;;;;;;;;;;;;;;;5090133;28;19954;-42
2022/10/03 03:38:30;;;;;;;;;;;;;;;;;;5090694;28;19904;-43
2022/10/03 03:40:56;;;;;;;;;;;;;;;;;;5090511;28;19908;-43
2022/10/03 03:43:22;;;;;;;;;;;;;;;;;;5090905;28;19907;-43
2022/10/03 03:45:49;;;;;;;;;;;;;;;;;;5082782;28;19912;-42
2022/10/03 03:48:15;;;;;;;;;;;;;;;;;;5083037;28;19908;-43
2022/10/03 03:50:42;;;;;;;;;;;;;;;;;;5090240;28;19904;-42
2022/10/03 03:53:08;;;;;;;;;;;;;;;;;;5089624;28;19915;-42
2022/10/03 03:55:34;;;;;;;;;;;;;;;;;;5089382;28;19912;-43
2022/10/03 03:58:00;;;;;;;;;;;;;;;;;;5090376;28;19927;-42
2022/10/03 04:00:29;;;;;;;;;;;;;;;;;;5090321;28;19995;-42
2022/10/03 04:02:55;;;;;;;;;;;;;;;;;;5090362;28;19904;-43
2022/10/03 04:05:21;;;;;;;;;;;;;;;;;;5089767;28;19920;-42
2022/10/03 04:07:49;;;;;;;;;;;;;;;;;;5090065;28;19907;-43
2022/10/03 04:10:15;;;;;;;;;;;;;;;;;;5090290;28;19912;-42
2022/10/03 04:12:41;;;;;;;;;;;;;;;;;;5089688;28;20363;-42
2022/10/03 04:15:07;;;;;;;;;;;;;;;;;;5085826;28;20011;-42
2022/10/03 04:20:17;;;;;;;;;;;;;;;;;;5089847;28;19915;-42
2022/10/03 04:22:44;;;;;;;;;;;;;;;;;;5089747;28;19904;-42
2022/10/03 04:25:14;;;;;;;;;;;;;;;;;;5089603;28;19904;-43
2022/10/03 04:27:40;;;;;;;;;;;;;;;;;;5070006;28;19912;-42
2022/10/03 04:30:06;;;;;;;;;;;;;;;;;;5069349;28;20049;-42
2022/10/03 04:32:33;;;;;;;;;;;;;;;;;;5069329;28;19908;-44
2022/10/03 04:34:59;;;;;;;;;;;;;;;;;;5078244;28;20000;-42
2022/10/03 04:37:26;;;;;;;;;;;;;;;;;;5089584;28;19935;-42
2022/10/03 04:39:52;;;;;;;;;;;;;;;;;;5089056;28;19911;-43
2022/10/03 04:42:22;;;;;;;;;;;;;;;;;;5088361;28;20759;-42
2022/10/03 04:44:48;;;;;;;;;;;;;;;;;;5089250;28;19908;-43
2022/10/03 04:47:15;;;;;;;;;;;;;;;;;;5089038;28;19908;-44
2022/10/03 04:49:41;;;;;;;;;;;;;;;;;;5089077;28;20408;-42
2022/10/03 04:52:07;;;;;;;;;;;;;;;;;;5089155;28;19908;-43
2022/10/03 04:54:33;;;;;;;;;;;;;;;;;;5088886;28;19965;-42
2022/10/03 04:56:59;;;;;;;;;;;;;;;;;;5088658;28;19915;-44
2022/10/03 04:59:25;;;;;;;;;;;;;;;;;;5089334;28;19911;-43
2022/10/03 05:01:50;;;;;;;;;;;;;;;;;;5088650;28;19904;-43
2022/10/03 05:04:16;;;;;;;;;;;;;;;;;;5089434;28;19908;-42
2022/10/03 05:06:42;;;;;;;;;;;;;;;;;;5088476;28;19912;-44
2022/10/03 05:09:09;;;;;;;;;;;;;;;;;;5087639;28;20003;-43
2022/10/03 05:11:35;;;;;;;;;;;;;;;;;;5089013;28;19900;-41
2022/10/03 05:14:01;;;;;;;;;;;;;;;;;;5088337;28;20431;-44
2022/10/03 05:16:27;;;;;;;;;;;;;;;;;;5088218;28;19915;-42
2022/10/03 05:18:53;;;;;;;;;;;;;;;;;;5087315;28;21213;-43
2022/10/03 05:21:19;;;;;;;;;;;;;;;;;;5088854;28;19904;-42
2022/10/03 05:23:45;;;;;;;;;;;;;;;;;;5088749;28;19904;-43
2022/10/03 05:26:11;;;;;;;;;;;;;;;;;;5087892;28;19908;-42
2022/10/03 05:28:38;;;;;;;;;;;;;;;;;;5068495;28;19916;-42
2022/10/03 05:31:04;;;;;;;;;;;;;;;;;;5068902;28;19919;-42
2022/10/03 05:33:30;;;;;;;;;;;;;;;;;;5070130;28;19912;-43
2022/10/03 05:35:56;;;;;;;;;;;;;;;;;;5077810;28;20298;-41
2022/10/03 05:38:23;;;;;;;;;;;;;;;;;;5087169;28;19908;-43
2022/10/03 05:40:49;;;;;;;;;;;;;;;;;;5067619;28;19909;-42
2022/10/03 05:43:14;;;;;;;;;;;;;;;;;;5079978;28;19908;-42
2022/10/03 05:45:40;;;;;;;;;;;;;;;;;;5087368;28;20386;-43
2022/10/03 05:48:06;;;;;;;;;;;;;;;;;;5087666;28;19997;-42
2022/10/03 05:50:32;;;;;;;;;;;;;;;;;;5088044;28;19907;-43
2022/10/03 05:52:58;;;;;;;;;;;;;;;;;;5088260;28;19908;-42
2022/10/03 05:55:24;;;;;;;;;;;;;;;;;;5086982;28;19917;-42
2022/10/03 05:57:51;;;;;;;;;;;;;;;;;;5071732;28;19908;-42
2022/10/03 06:00:17;;;;;;;;;;;;;;;;;;5068075;28;19908;-42
2022/10/03 06:02:43;;;;;;;;;;;;;;;;;;5068420;28;20011;-42
2022/10/03 06:05:09;;;;;;;;;;;;;;;;;;5068190;28;19905;-42
2022/10/03 06:07:35;;;;;;;;;;;;;;;;;;5066949;28;19904;-42
2022/10/03 06:10:03;;;;;;;;;;;;;;;;;;5067249;28;20310;-42
2022/10/03 06:12:29;;;;;;;;;;;;;;;;;;5087002;28;19908;-43
2022/10/03 06:14:55;;;;;;;;;;;;;;;;;;5087402;28;19919;-43
2022/10/03 06:17:21;;;;;;;;;;;;;;;;;;5087242;28;19908;-43
2022/10/03 06:19:48;;;;;;;;;;;;;;;;;;5088106;28;19954;-44
2022/10/03 06:22:14;;;;;;;;;;;;;;;;;;5070484;28;20328;-43
2022/10/03 06:24:40;;;;;;;;;;;;;;;;;;5067778;28;19995;-42
2022/10/03 06:27:07;;;;;;;;;;;;;;;;;;5077376;28;19973;-42
2022/10/03 06:29:33;;;;;;;;;;;;;;;;;;5067662;28;19908;-43
2022/10/03 06:31:58;;;;;;;;;;;;;;;;;;5074936;28;19953;-43
2022/10/03 06:34:24;;;;;;;;;;;;;;;;;;5088152;28;19998;-42
2022/10/03 06:36:50;;;;;;;;;;;;;;;;;;5076853;28;19904;-43
2022/10/03 06:39:16;;;;;;;;;;;;;;;;;;5073274;28;19940;-42
2022/10/03 06:41:42;;;;;;;;;;;;;;;;;;5081342;28;20488;-43
2022/10/03 06:44:08;;;;;;;;;;;;;;;;;;5087973;28;19952;-43
2022/10/03 06:46:34;;;;;;;;;;;;;;;;;;5087973;28;19939;-43
2022/10/03 06:49:00;;;;;;;;;;;;;;;;;;5087541;28;19966;-42
2022/10/03 06:51:26;;;;;;;;;;;;;;;;;;5087210;28;19908;-43
2022/10/03 06:53:53;;;;;;;;;;;;;;;;;;5087718;28;19904;-43
2022/10/03 06:56:19;;;;;;;;;;;;;;;;;;5087954;28;20309;-42
2022/10/03 06:58:45;;;;;;;;;;;;;;;;;;5083473;28;20595;-42
2022/10/03 07:01:11;;;;;;;;;;;;;;;;;;5077483;28;19909;-43
2022/10/03 07:03:36;;;;;;;;;;;;;;;;;;5078928;28;20011;-43
2022/10/03 07:06:02;;;;;;;;;;;;;;;;;;5087603;28;19935;-42
2022/10/03 07:08:28;;;;;;;;;;;;;;;;;;5088273;28;19907;-42
2022/10/03 07:10:54;;;;;;;;;;;;;;;;;;5088222;28;19988;-43
2022/10/03 07:13:20;;;;;;;;;;;;;;;;;;5089880;28;19911;-42
2022/10/03 07:15:48;;;;;;;;;;;;;;;;;;5079518;28;19924;-43
2022/10/03 07:18:14;;;;;;;;;;;;;;;;;;5090095;28;19912;-43
2022/10/03 07:20:40;;;;;;;;;;;;;;;;;;5090022;28;20358;-42
2022/10/03 07:23:05;;;;;;;;;;;;;;;;;;5090258;28;19919;-43
2022/10/03 07:25:31;;;;;;;;;;;;;;;;;;5088913;28;19930;-44
2022/10/03 07:27:57;;;;;;;;;;;;;;;;;;5088806;28;19920;-42
2022/10/03 07:30:23;;;;;;;;;;;;;;;;;;5089128;28;19918;-42
2022/10/03 07:32:49;;;;;;;;;;;;;;;;;;5089063;28;19908;-43
2022/10/03 07:35:16;;;;;;;;;;;;;;;;;;5091267;28;19922;-42
2022/10/03 07:40:27;;;;;;;;;;;;;;;;;;5082295;28;19910;-42
2022/10/03 07:42:53;;;;;;;;;;;;;;;;;;5083632;28;20290;-42
2022/10/03 07:45:19;;;;;;;;;;;;;;;;;;5080766;28;19912;-44
2022/10/03 07:47:45;;;;;;;;;;;;;;;;;;5086473;28;20006;-43
2022/10/03 07:50:11;;;;;;;;;;;;;;;;;;5090718;28;19911;-42
2022/10/03 07:52:38;;;;;;;;;;;;;;;;;;5085488;28;19912;-43
2022/10/03 07:55:04;;;;;;;;;;;;;;;;;;5075758;28;19961;-42
2022/10/03 07:57:30;;;;;;;;;;;;;;;;;;5082990;28;19908;-46
2022/10/03 07:59:56;;;;;;;;;;;;;;;;;;5090556;28;19908;-43
2022/10/03 08:02:21;;;;;;;;;;;;;;;;;;5085952;28;19908;-42
2022/10/03 08:04:47;;;;;;;;;;;;;;;;;;5089328;28;19908;-44
2022/10/03 08:07:13;;;;;;;;;;;;;;;;;;5089324;28;19915;-42
2022/10/03 08:09:40;;;;;;;;;;;;;;;;;;5089928;28;19908;-42
2022/10/03 08:12:05;;;;;;;;;;;;;;;;;;5087545;28;19912;-42
2022/10/03 08:14:31;;;;;;;;;;;;;;;;;;5088968;28;19915;-42
2022/10/03 08:16:57;;;;;;;;;;;;;;;;;;5081423;28;19912;-42
2022/10/03 08:19:23;;;;;;;;;;;;;;;;;;5084638;28;19909;-43
2022/10/03 08:21:49;;;;;;;;;;;;;;;;;;5089138;28;19907;-43
2022/10/03 08:24:15;;;;;;;;;;;;;;;;;;5090120;28;19912;-42
2022/10/03 08:26:42;;;;;;;;;;;;;;;;;;5088789;28;19927;-42
2022/10/03 08:29:08;;;;;;;;;;;;;;;;;;5090222;28;19970;-42
2022/10/03 08:31:34;;;;;;;;;;;;;;;;;;5087111;28;19911;-42
2022/10/03 08:34:01;;;;;;;;;;;;;;;;;;5089880;28;19960;-43
2022/10/03 08:36:27;;;;;;;;;;;;;;;;;;5088975;28;20344;-42
2022/10/03 08:38:53;;;;;;;;;;;;;;;;;;5090576;28;19904;-42
2022/10/03 08:41:19;;;;;;;;;;;;;;;;;;5088879;28;20367;-43
2022/10/03 08:43:45;;;;;;;;;;;;;;;;;;5079235;28;20337;-42
2022/10/03 08:46:11;;;;;;;;;;;;;;;;;;5084021;28;19912;-43
2022/10/03 08:48:37;;;;;;;;;;;;;;;;;;5090028;28;19908;-42
2022/10/03 08:51:03;;;;;;;;;;;;;;;;;;5086125;28;19914;-42
2022/10/03 08:53:30;;;;;;;;;;;;;;;;;;5082601;28;19912;-42
2022/10/03 08:55:56;;;;;;;;;;;;;;;;;;5082583;28;19959;-42
2022/10/03 08:58:22;;;;;;;;;;;;;;;;;;5087137;28;20012;-43
2022/10/03 09:00:51;;;;;;;;;;;;;;;;;;5086883;28;19912;-44
2022/10/03 09:03:17;;;;;;;;;;;;;;;;;;5079471;28;19908;-42
2022/10/03 09:05:43;;;;;;;;;;;;;;;;;;5080817;28;19904;-43
2022/10/03 09:08:09;;;;;;;;;;;;;;;;;;5089427;28;19911;-42
2022/10/03 09:10:35;;;;;;;;;;;;;;;;;;5088486;28;19943;-42
2022/10/03 09:13:01;;;;;;;;;;;;;;;;;;5084586;28;20012;-43
2022/10/03 09:15:27;;;;;;;;;;;;;;;;;;5087757;28;20021;-42
2022/10/03 09:17:54;;;;;;;;;;;;;;;;;;5080028;28;19908;-42
2022/10/03 09:20:20;;;;;;;;;;;;;;;;;;5079162;28;20375;-42
2022/10/03 09:22:48;;;;;;;;;;;;;;;;;;5087389;28;19918;-43
2022/10/03 09:25:14;;;;;;;;;;;;;;;;;;5089204;28;19912;-43
2022/10/03 09:27:41;;;;;;;;;;;;;;;;;;5083223;28;20292;-43
2022/10/03 09:30:07;;;;;;;;;;;;;;;;;;5088804;28;19912;-42
2022/10/03 09:32:32;;;;;;;;;;;;;;;;;;5085368;28;19911;-45
2022/10/03 09:34:59;;;;;;;;;;;;;;;;;;5072173;28;19916;-42
2022/10/03 09:37:25;;;;;;;;;;;;;;;;;;5088001;28;20324;-43
2022/10/03 09:39:51;;;;;;;;;;;;;;;;;;5084489;28;19912;-42
2022/10/03 09:42:17;;;;;;;;;;;;;;;;;;5081138;28;19908;-42
2022/10/03 09:44:43;;;;;;;;;;;;;;;;;;5081729;28;19922;-43
2022/10/03 09:47:21;;;;;;;;;;;;;;;;;;5087651;28;20002;-43
2022/10/03 09:49:47;;;;;;;;;;;;;;;;;;5086523;28;19919;-43
2022/10/03 09:52:13;;;;;;;;;;;;;;;;;;5088862;28;19908;-43
2022/10/03 09:54:43;;;;;;;;;;;;;;;;;;5086522;28;19916;-42
2022/10/03 09:57:09;;;;;;;;;;;;;;;;;;5069516;28;19912;-43
2022/10/03 09:59:34;;;;;;;;;;;;;;;;;;5086054;28;20666;-42
2022/10/03 10:02:00;;;;;;;;;;;;;;;;;;5088252;28;19907;-44
2022/10/03 10:04:26;;;;;;;;;;;;;;;;;;5086321;28;19976;-43
2022/10/03 10:06:52;;;;;;;;;;;;;;;;;;5088159;28;19908;-42
2022/10/03 10:09:18;;;;;;;;;;;;;;;;;;5085323;28;19912;-42
2022/10/03 10:11:44;;;;;;;;;;;;;;;;;;5079552;28;20014;-42
2022/10/03 10:14:10;;;;;;;;;;;;;;;;;;5068068;28;19999;-42
2022/10/03 10:16:37;;;;;;;;;;;;;;;;;;5067664;28;20007;-44
2022/10/03 10:19:03;;;;;;;;;;;;;;;;;;5081220;28;19960;-42
2022/10/03 10:21:29;;;;;;;;;;;;;;;;;;5067652;28;19908;-43
2022/10/03 10:23:56;;;;;;;;;;;;;;;;;;5080930;28;19955;-43
2022/10/03 10:26:22;;;;;;;;;;;;;;;;;;5074009;28;19908;-43
2022/10/03 10:28:48;;;;;;;;;;;;;;;;;;5087010;28;19977;-43
2022/10/03 10:31:14;;;;;;;;;;;;;;;;;;5086753;28;19951;-43
2022/10/03 10:33:40;;;;;;;;;;;;;;;;;;5087756;28;19935;-42
2022/10/03 10:36:06;;;;;;;;;;;;;;;;;;5091836;28;19916;-43
2022/10/03 10:38:32;;;;;;;;;;;;;;;;;;5091811;28;19904;-42
2022/10/03 10:40:58;;;;;;;;;;;;;;;;;;5090858;28;19915;-45
2022/10/03 10:43:25;;;;;;;;;;;;;;;;;;5084489;28;19908;-42
2022/10/03 10:45:50;;;;;;;;;;;;;;;;;;5084695;28;19965;-43
2022/10/03 10:48:17;;;;;;;;;;;;;;;;;;5076347;28;19908;-43
2022/10/03 10:50:42;;;;;;;;;;;;;;;;;;5081251;28;19908;-43
2022/10/03 10:53:09;;;;;;;;;;;;;;;;;;5081078;28;19966;-43
2022/10/03 10:55:34;;;;;;;;;;;;;;;;;;5086823;28;19921;-46
2022/10/03 10:58:00;;;;;;;;;;;;;;;;;;5089945;28;19908;-43
2022/10/03 11:00:26;;;;;;;;;;;;;;;;;;5090696;28;19907;-42
2022/10/03 11:02:52;;;;;;;;;;;;;;;;;;5087507;28;19910;-42
2022/10/03 11:05:18;;;;;;;;;;;;;;;;;;5091519;28;20402;-44
2022/10/03 11:07:44;;;;;;;;;;;;;;;;;;5091053;28;19908;-43
2022/10/03 11:10:10;;;;;;;;;;;;;;;;;;5091401;28;19958;-42
2022/10/03 11:12:36;;;;;;;;;;;;;;;;;;5086129;28;19960;-42
2022/10/03 11:15:03;;;;;;;;;;;;;;;;;;5089878;28;19923;-43
2022/10/03 11:17:29;;;;;;;;;;;;;;;;;;5071338;28;19908;-42
2022/10/03 11:19:55;;;;;;;;;;;;;;;;;;5071113;28;20391;-42
2022/10/03 11:22:22;;;;;;;;;;;;;;;;;;5075207;28;19911;-42
2022/10/03 11:24:48;;;;;;;;;;;;;;;;;;5089857;28;19911;-42
2022/10/03 11:27:14;;;;;;;;;;;;;;;;;;5083011;28;19931;-43
2022/10/03 11:29:41;;;;;;;;;;;;;;;;;;5090821;28;20273;-44
2022/10/03 11:32:08;;;;;;;;;;;;;;;;;;5090418;28;20336;-43
2022/10/03 11:34:35;;;;;;;;;;;;;;;;;;5090500;28;19911;-42
2022/10/03 11:37:01;;;;;;;;;;;;;;;;;;5089709;28;20318;-42
2022/10/03 11:39:27;;;;;;;;;;;;;;;;;;5089037;28;19921;-43
2022/10/03 11:41:53;;;;;;;;;;;;;;;;;;5088652;28;19987;-43
2022/10/03 11:44:18;;;;;;;;;;;;;;;;;;5088585;28;19918;-44
2022/10/03 11:46:45;;;;;;;;;;;;;;;;;;5086969;28;19904;-42
2022/10/03 11:49:11;;;;;;;;;;;;;;;;;;5081170;28;20007;-42
2022/10/03 11:51:38;;;;;;;;;;;;;;;;;;5074125;28;20073;-43
2022/10/03 11:54:04;;;;;;;;;;;;;;;;;;5088089;28;19908;-43
2022/10/03 11:56:30;;;;;;;;;;;;;;;;;;5088022;28;20394;-43
2022/10/03 11:58:56;;;;;;;;;;;;;;;;;;5083980;28;19916;-43
2022/10/03 12:01:23;;;;;;;;;;;;;;;;;;5088681;28;19914;-43
2022/10/03 12:03:49;;;;;;;;;;;;;;;;;;5081189;28;19916;-43
2022/10/03 12:08:59;;;;;;;;;;;;;;;;;;5090016;28;19911;-43
2022/10/03 12:11:26;;;;;;;;;;;;;;;;;;5088071;28;19920;-43
2022/10/03 12:13:52;;;;;;;;;;;;;;;;;;5087504;28;19908;-44
2022/10/03 12:16:19;;;;;;;;;;;;;;;;;;5070131;28;20595;-46
2022/10/03 12:18:45;;;;;;;;;;;;;;;;;;5074917;28;19911;-44
2022/10/03 12:21:11;;;;;;;;;;;;;;;;;;5075956;28;19913;-43
2022/10/03 12:23:37;;;;;;;;;;;;;;;;;;5069415;28;20003;-43
2022/10/03 12:26:04;;;;;;;;;;;;;;;;;;5068963;28;19995;-44
2022/10/03 12:28:30;;;;;;;;;;;;;;;;;;5067757;28;19912;-43
2022/10/03 12:30:56;;;;;;;;;;;;;;;;;;5067894;28;20003;-43
2022/10/03 12:33:26;;;;;;;;;;;;;;;;;;5068062;28;19944;-43
2022/10/03 12:35:53;;;;;;;;;;;;;;;;;;5067991;28;19909;-42
2022/10/03 12:38:19;;;;;;;;;;;;;;;;;;5067640;28;19909;-43
2022/10/03 12:40:46;;;;;;;;;;;;;;;;;;5066707;28;19954;-45
2022/10/03 12:43:11;;;;;;;;;;;;;;;;;;5066991;28;19908;-43
2022/10/03 12:45:37;;;;;;;;;;;;;;;;;;5065877;28;20405;-43
2022/10/03 12:48:06;;;;;;;;;;;;;;;;;;5066047;28;19912;-43
2022/10/03 12:50:32;;;;;;;;;;;;;;;;;;5065715;28;20010;-43
2022/10/03 12:52:58;;;;;;;;;;;;;;;;;;5066159;28;19904;-42
2022/10/03 12:55:26;;;;;;;;;;;;;;;;;;5065613;28;20299;-43
2022/10/03 12:57:51;;;;;;;;;;;;;;;;;;5064841;28;19908;-43
2022/10/03 13:00:19;;;;;;;;;;;;;;;;;;5066003;28;19962;-45
2022/10/03 13:02:45;;;;;;;;;;;;;;;;;;5066044;28;20380;-43
2022/10/03 13:05:11;;;;;;;;;;;;;;;;;;5066427;28;20003;-43
2022/10/03 13:07:37;;;;;;;;;;;;;;;;;;5065469;28;19958;-43
2022/10/03 13:10:03;;;;;;;;;;;;;;;;;;5065266;28;20364;-43
2022/10/03 13:12:30;;;;;;;;;;;;;;;;;;5065219;28;19915;-42
2022/10/03 13:14:56;;;;;;;;;;;;;;;;;;5065478;28;19923;-42
2022/10/03 13:17:22;;;;;;;;;;;;;;;;;;5065660;28;19909;-43
2022/10/03 13:19:48;;;;;;;;;;;;;;;;;;5065226;28;20457;-43
2022/10/03 13:22:14;;;;;;;;;;;;;;;;;;5065986;28;19904;-44
2022/10/03 13:24:40;;;;;;;;;;;;;;;;;;5064962;28;19905;-42
2022/10/03 13:27:06;;;;;;;;;;;;;;;;;;5065451;28;19915;-43
2022/10/03 13:29:32;;;;;;;;;;;;;;;;;;5065037;28;19908;-44
2022/10/03 13:32:00;;;;;;;;;;;;;;;;;;5065444;28;19913;-43
2022/10/03 13:34:26;;;;;;;;;;;;;;;;;;5065281;28;19909;-43
2022/10/03 13:36:51;;;;;;;;;;;;;;;;;;5064881;28;19931;-42
2022/10/03 13:39:18;;;;;;;;;;;;;;;;;;5065267;28;19904;-43
2022/10/03 13:41:44;;;;;;;;;;;;;;;;;;5065449;28;19936;-42
2022/10/03 13:44:11;;;;;;;;;;;;;;;;;;5065282;28;19951;-43
2022/10/03 13:46:37;;;;;;;;;;;;;;;;;;5065131;28;20400;-42
2022/10/03 13:49:09;;;;;;;;;;;;;;;;;;5065075;28;19905;-42
2022/10/03 13:51:38;;;;;;;;;;;;;;;;;;5064712;28;20395;-42
2022/10/03 13:54:04;;;;;;;;;;;;;;;;;;5065149;28;19957;-43
2022/10/03 13:56:30;;;;;;;;;;;;;;;;;;5064503;28;20311;-43
2022/10/03 13:58:56;;;;;;;;;;;;;;;;;;5065252;28;20301;-43
2022/10/03 14:01:22;;;;;;;;;;;;;;;;;;5065005;28;19908;-42
2022/10/03 14:03:47;;;;;;;;;;;;;;;;;;5064864;28;19915;-42
2022/10/03 14:06:13;;;;;;;;;;;;;;;;;;5065531;28;19974;-43
2022/10/03 14:08:39;;;;;;;;;;;;;;;;;;5064754;28;19939;-44
2022/10/03 14:11:05;;;;;;;;;;;;;;;;;;5068979;28;20170;-42
2022/10/03 14:13:31;;;;;;;;;;;;;;;;;;5068894;28;20000;-43
2022/10/03 14:15:58;;;;;;;;;;;;;;;;;;5068950;28;20019;-42
2022/10/03 14:18:24;;;;;;;;;;;;;;;;;;5068885;28;19964;-42
2022/10/03 14:20:50;;;;;;;;;;;;;;;;;;5068377;28;20379;-44
2022/10/03 14:23:17;;;;;;;;;;;;;;;;;;5068833;28;19904;-43
2022/10/03 14:25:43;;;;;;;;;;;;;;;;;;5069061;28;20355;-42
2022/10/03 14:28:10;;;;;;;;;;;;;;;;;;5076208;28;20010;-43
2022/10/03 14:30:36;;;;;;;;;;;;;;;;;;5082471;28;20362;-43
2022/10/03 14:33:02;;;;;;;;;;;;;;;;;;5084535;28;19955;-42
2022/10/03 14:35:32;;;;;;;;;;;;;;;;;;5088220;28;20284;-44
2022/10/03 14:37:58;;;;;;;;;;;;;;;;;;5088254;28;19908;-43
2022/10/03 14:40:27;;;;;;;;;;;;;;;;;;5088600;28;19904;-42
2022/10/03 14:42:53;;;;;;;;;;;;;;;;;;5087511;28;19965;-42
2022/10/03 14:45:19;;;;;;;;;;;;;;;;;;5068414;28;20393;-43
2022/10/03 14:47:44;;;;;;;;;;;;;;;;;;5069022;28;19908;-44
2022/10/03 14:50:11;;;;;;;;;;;;;;;;;;5068048;28;19908;-42
2022/10/03 14:52:38;;;;;;;;;;;;;;;;;;5074435;28;19911;-43
2022/10/03 14:55:11;;;;;;;0.40;0.40;;;;;;;;;;5087070;28;20518;-42
2022/10/03 14:57:48;;;;;;;0.40;0.40;;;;;;;;;;5085354;28;20037;-42
2022/10/03 15:00:26;;;;;;;0.35;0.35;;;;;;;;;;5073507;28;20495;-43
2022/10/03 15:02:52;;;;;;;0.52;0.40;;;;;;;;;;5084164;28;20424;-43
2022/10/03 15:05:31;;;;;;;0.40;0.40;;;;;;;;;;5081330;28;20096;-42
2022/10/03 15:07:58;;;;;;;0.50;0.50;;;;;;;;;;5088110;28;20768;-42
2022/10/03 15:10:26;;;;;;;0.40;0.40;;;;;;;;;;5085598;28;20027;-43
2022/10/03 15:12:57;;;;;;;0.20;0.20;;;;;;;;;;5078274;28;20039;-42
2022/10/03 15:15:24;;;;;;;0.50;0.50;;;;;;;;;;5086270;28;20036;-42
2022/10/03 15:17:52;;;;;;;0.40;0.40;;;;;;;;;;5088938;28;20022;-43
2022/10/03 15:20:30;;;;;;;0.30;0.30;;;;;;;;;;5085692;28;20577;-44
2022/10/03 15:22:59;;;;;;;0.40;0.40;;;;;;;;;;5081162;28;20399;-42
2022/10/03 15:25:32;;;;;;;0.38;0.38;;;;;;;;;;5083107;28;20419;-43
2022/10/03 15:28:01;;;;;;;0.20;0.20;;;;;;;;;;5088905;28;20043;-41
2022/10/03 15:30:33;;;;;;;0.40;0.40;;;;;;;;;;5087656;28;20309;-42
2022/10/03 15:33:15;;;;;;;0.47;0.43;;;;;;;;;;5088413;28;20123;-43
2022/10/03 15:35:43;;;;;;;0.40;0.40;;;;;;;;;;5078757;28;20028;-42
2022/10/03 15:38:14;;;;;;;0.30;0.30;;;;;;;;;;5076540;28;20024;-42
2022/10/03 15:40:47;;;;;;;0.95;0.55;;;;;;;;;;5075835;28;20021;-42
2022/10/03 15:43:20;;;;;;;0.50;0.50;;;;;;;;;;5077246;28;20081;-42
2022/10/03 15:45:46;;;;;;;0.73;0.40;;;;;;;;;;5085847;28;20032;-43
2022/10/03 15:48:16;;;;;;;0.40;0.40;;;;;;;;;;5087995;28;20035;-43
2022/10/03 15:50:42;;;;;;;0.30;0.30;;;;;;;;;;5087131;28;20108;-42
2022/10/03 15:53:22;;;;;;;0.50;0.30;;;;;;;;;;5083122;28;20047;-43
2022/10/03 15:55:50;;;;;;;1.77;0.50;;;;;;;;;;5088116;28;20038;-42
2022/10/03 15:58:37;;;;;;;0.30;0.30;;;;;;;;;;5087566;28;20028;-43
2022/10/03 16:01:06;;;;;;;0.55;0.50;;;;;;;;;;5085003;28;20042;-42
2022/10/03 16:03:52;;;;;;;0.52;0.50;;;;;;;;;;5087638;28;20028;-42
2022/10/03 16:06:32;;;;;;;0.40;0.40;;;;;;;;;;5053186;28;20523;-43
2022/10/03 16:09:06;;;;;;;0.50;0.50;;;;;;;;;;5087071;28;20027;-41
2022/10/03 16:11:53;;;;;;;0.40;0.38;;;;;;;;;;5086131;28;20016;-42
2022/10/03 16:14:24;;;;;;;0.45;0.45;;;;;;;;;;5060516;28;20082;-42
2022/10/03 16:16:59;;;;;;;0.75;0.40;;;;;;;;;;5086558;28;20031;-42
2022/10/03 16:19:25;;;;;;;0.43;0.30;;;;;;;;;;5083765;28;20032;-42
2022/10/03 16:21:54;;;;;;;0.75;0.50;;;;;;;;;;5080168;28;20013;-43
2022/10/03 16:24:28;;;;;;;0.57;0.40;;;;;;;;;;5082444;28;20138;-43
2022/10/03 16:26:55;;;;;;;0.40;0.40;;;;;;;;;;5081268;28;20060;-42
2022/10/03 16:29:21;;;;;;;0.40;0.40;;;;;;;;;;5084534;28;20035;-42
2022/10/03 16:32:01;;;;;;;0.30;0.30;;;;;;;;;;5083946;28;20016;-42
2022/10/03 16:34:29;;;;;;;0.50;0.43;;;;;;;;;;5085147;28;20407;-43
2022/10/03 16:36:58;;;;;;;0.43;0.40;;;;;;;;;;5084813;28;20036;-42
2022/10/03 16:39:26;;;;;;;0.40;0.40;;;;;;;;;;5083635;28;20032;-42